This is the latest recevied weather packets stored in our database for station/object CE3MXM-12. If no packets are shown the sender has not sent any weather packets the latest 1 day(s).
| Time | Temp. | Humidity | Pressure | Rain* | Wind** | Luminosity | Snow |
|---|---|---|---|---|---|---|---|
| 1777984501 | 14.44° C | 70% | 1012.9 hPa | - | 1.79 m/s, 183° | - | - |
| 1777984201 | 13.89° C | 71% | 1013 hPa | - | 0 m/s | - | - |
| 1777983901 | 13.33° C | 73% | 1012.9 hPa | - | 1.79 m/s, 277° | - | - |
| 1777983601 | 13.33° C | 77% | 1013.2 hPa | - | 0.45 m/s, 315° | - | - |
| 1777983301 | 13.33° C | 78% | 1013.1 hPa | - | 1.34 m/s, 297° | - | - |
| 1777983001 | 12.78° C | 79% | 1013.3 hPa | - | 2.24 m/s, 308° | - | - |
| 1777982701 | 12.78° C | 81% | 1013.4 hPa | - | 2.68 m/s, 314° | - | - |
| 1777982400 | 12.78° C | 81% | 1013.3 hPa | - | 3.58 m/s, 312° | - | - |
| 1777982100 | 12.78° C | 82% | 1013 hPa | - | 0 m/s | - | - |
| 1777981800 | 12.22° C | 83% | 1013.3 hPa | - | 3.58 m/s, 294° | - | - |
| 1777981500 | 12.22° C | 83% | 1013.2 hPa | - | 0.89 m/s, 178° | - | - |
| 1777981200 | 12.22° C | 83% | 1013.3 hPa | - | 0.89 m/s, 317° | - | - |
| 1777980900 | 12.22° C | 83% | 1013 hPa | - | 2.68 m/s, 147° | - | - |
| 1777980600 | 12.22° C | 83% | 1012.8 hPa | - | 2.68 m/s, 154° | - | - |
| 1777980300 | 12.22° C | 83% | 1013.1 hPa | - | 4.02 m/s, 180° | - | - |
| 1777980000 | 12.22° C | 83% | 1013.5 hPa | - | 3.58 m/s, 302° | - | - |
| 1777979700 | 12.22° C | 82% | 1012.7 hPa | - | 2.68 m/s, 190° | - | - |
| 1777979399 | 12.22° C | 81% | 1013.1 hPa | - | 8.49 m/s, 154° | - | - |
| 1777979099 | 12.22° C | 82% | 1013.4 hPa | - | 2.68 m/s, 161° | - | - |
| 1777978799 | 12.22° C | 82% | 1013.6 hPa | - | 1.34 m/s, 156° | - | - |
| 1777978499 | 12.78° C | 81% | 1013.5 hPa | - | 2.24 m/s, 161° | - | - |
| 1777978199 | 12.78° C | 81% | 1013.5 hPa | - | 4.02 m/s, 123° | - | - |
| 1777977899 | 12.78° C | 81% | 1013.5 hPa | - | 0.45 m/s, 142° | - | - |
| 1777977599 | 12.78° C | 81% | 1013.5 hPa | - | 0 m/s | - | - |
| 1777977299 | 12.78° C | 80% | 1013.4 hPa | - | 0.89 m/s, 144° | - | - |
* Rain since midnight (hover to see other rain measurements)
** Current wind speed in m/s (hover to see current wind gust speed)